createdAt,value
2017-06-09T05:44:55.658Z,100.000
2017-06-09T05:47:39.232Z,100.000
2017-06-09T05:56:23.465Z,100.000
2017-06-09T06:07:01.936Z,100.000
2017-06-09T06:09:45.686Z,100.000
2017-06-09T06:12:39.773Z,100.000
2017-06-09T06:15:34.437Z,100.000
2017-06-09T06:19:48.347Z,100.000
2017-06-09T06:22:33.748Z,100.000
2017-06-09T06:31:07.440Z,100.000
2017-06-09T06:33:51.607Z,100.000
2017-06-09T06:36:45.864Z,100.000
2017-06-09T06:39:40.813Z,100.000
2017-06-09T06:42:35.885Z,100.000
2017-06-09T06:45:30.920Z,100.000
2017-06-09T06:48:26.016Z,100.000
2017-06-09T06:51:21.241Z,100.000
2017-06-09T06:54:16.588Z,100.000
2017-06-09T06:57:11.957Z,100.000
2017-06-09T07:00:07.235Z,100.000
2017-06-09T07:03:02.539Z,100.000
2017-06-09T07:05:57.752Z,100.000
2017-06-09T07:08:53.082Z,100.000
2017-06-09T07:11:48.326Z,100.000
2017-06-09T07:14:43.642Z,100.000
2017-06-09T07:17:38.950Z,100.000
2017-06-09T07:20:34.246Z,100.000
2017-06-09T07:23:29.608Z,100.000
2017-06-09T07:26:26.657Z,100.000
2017-06-09T07:29:20.312Z,100.000
2017-06-09T07:32:15.657Z,100.000
2017-06-09T07:35:10.987Z,100.000
2017-06-09T07:38:06.368Z,100.000
2017-06-09T07:41:01.696Z,100.000
2017-06-09T07:43:56.970Z,100.000
2017-06-09T07:46:52.308Z,100.000
2017-06-09T07:49:47.622Z,100.000
2017-06-09T07:52:42.915Z,100.000
2017-06-09T07:55:38.323Z,100.000
2017-06-09T07:58:35.423Z,100.000
2017-06-09T08:01:29.299Z,100.000
2017-06-09T08:04:24.690Z,100.000
2017-06-09T08:07:20.213Z,100.000
2017-06-09T08:10:17.410Z,100.000
2017-06-09T08:13:13.140Z,100.000
2017-06-09T08:16:06.943Z,100.000
2017-06-09T08:19:02.646Z,100.000
2017-06-09T08:21:58.401Z,100.000
2017-06-09T08:24:54.125Z,100.000
2017-06-09T08:27:49.714Z,100.000
2017-06-09T08:30:45.436Z,100.000
2017-06-09T08:33:41.330Z,100.000
2017-06-09T08:36:36.767Z,100.000
2017-06-09T08:39:32.650Z,99.690
2017-06-09T08:42:29.534Z,99.156
2017-06-09T08:45:24.242Z,96.799
2017-06-09T08:48:20.516Z,95.643
2017-06-09T08:51:16.247Z,100.000
2017-06-09T08:54:12.141Z,97.167
2017-06-09T08:57:07.977Z,85.013
2017-06-09T09:00:03.602Z,83.190
2017-06-09T09:02:59.322Z,80.594
2017-06-09T09:05:54.411Z,80.908
2017-06-09T09:08:50.304Z,79.185
2017-06-09T09:11:45.654Z,83.000
2017-06-09T09:14:41.737Z,73.414
2017-06-09T09:17:37.886Z,70.903
2017-06-09T09:20:33.942Z,64.872
2017-06-09T09:23:31.928Z,68.541
2017-06-09T09:26:26.497Z,65.727
2017-06-09T09:29:22.474Z,62.449
2017-06-09T09:32:18.471Z,59.975
2017-06-09T09:35:14.762Z,57.886
2017-06-09T09:38:10.459Z,61.519
2017-06-09T09:41:06.666Z,59.841
2017-06-09T09:44:03.280Z,61.012
2017-06-09T09:46:59.615Z,59.049
2017-06-09T09:49:55.981Z,52.692
2017-06-09T09:52:52.383Z,53.483
2017-06-09T09:55:48.795Z,59.583
2017-06-09T09:58:45.379Z,51.944
2017-06-09T10:01:41.838Z,51.242
2017-06-09T10:04:38.559Z,43.246
2017-06-09T10:07:34.899Z,37.725
2017-06-09T10:10:31.279Z,45.647
2017-06-09T10:13:29.369Z,35.829
2017-06-09T10:16:23.892Z,38.660
2017-06-09T10:19:20.087Z,41.086
2017-06-09T10:22:16.463Z,43.609
2017-06-09T10:25:12.869Z,40.570
2017-06-09T10:28:09.014Z,46.981
2017-06-09T10:31:04.762Z,43.748
2017-06-09T10:34:00.457Z,37.477
2017-06-09T10:36:56.085Z,45.316
2017-06-09T10:39:51.751Z,42.106
2017-06-09T10:42:47.369Z,46.683
2017-06-09T10:45:43.087Z,48.643
2017-06-09T10:48:38.634Z,50.931
2017-06-09T10:51:34.346Z,53.318
2017-06-09T10:54:29.915Z,50.729
2017-06-09T10:57:25.630Z,51.656
2017-06-09T11:00:21.242Z,56.981
2017-06-09T11:03:16.934Z,58.670
2017-06-09T11:06:12.476Z,57.232
2017-06-09T11:09:08.036Z,65.512
2017-06-09T11:12:05.407Z,58.152
2017-06-09T11:14:59.366Z,62.827
2017-06-09T11:17:55.015Z,64.245
2017-06-09T11:20:50.784Z,62.927
2017-06-09T11:23:46.348Z,62.390
2017-06-09T11:26:42.065Z,64.839
2017-06-09T11:29:37.764Z,62.373
2017-06-09T11:32:33.395Z,64.310
2017-06-09T11:35:29.021Z,69.384
2017-06-09T11:38:24.559Z,62.294
2017-06-09T11:41:20.161Z,63.894
2017-06-09T11:44:15.687Z,64.334
2017-06-09T11:47:11.308Z,66.316
2017-06-09T11:50:06.998Z,68.815
2017-06-09T11:53:02.514Z,69.254
2017-06-09T11:55:58.318Z,66.549
2017-06-09T11:58:55.717Z,67.916
2017-06-09T12:01:49.701Z,70.057
2017-06-09T12:04:46.917Z,68.335
2017-06-09T12:07:40.882Z,69.524
2017-06-09T12:10:36.393Z,68.640
2017-06-09T12:13:32.139Z,68.434
2017-06-09T12:16:29.613Z,67.563
2017-06-09T12:19:23.431Z,68.682
2017-06-09T12:22:19.110Z,69.736
2017-06-09T12:25:14.623Z,70.377
2017-06-09T12:28:10.262Z,71.747
2017-06-09T12:31:06.013Z,70.979
2017-06-09T12:34:01.688Z,70.423
2017-06-09T12:36:57.311Z,69.945
2017-06-09T12:39:53.027Z,68.898
2017-06-09T12:42:48.611Z,70.674
2017-06-09T12:45:44.355Z,70.163
2017-06-09T12:48:40.155Z,100.000
2017-06-09T12:51:35.745Z,85.446
2017-06-09T12:54:33.046Z,90.263
2017-06-09T12:57:27.062Z,94.246
2017-06-09T13:00:22.698Z,99.738
2017-06-09T13:03:18.388Z,80.000
2017-06-09T13:06:14.022Z,78.761
2017-06-09T13:09:09.641Z,75.442
2017-06-09T13:12:05.316Z,93.338
2017-06-09T13:15:02.825Z,78.564
2017-06-09T13:17:56.602Z,90.278
2017-06-09T13:20:52.164Z,79.435
2017-06-09T13:23:47.721Z,75.005
2017-06-09T13:26:43.557Z,89.418
2017-06-09T13:29:39.324Z,90.309
2017-06-09T13:32:36.859Z,84.812
2017-06-09T13:35:30.776Z,78.486
2017-06-09T13:38:26.449Z,88.053
2017-06-09T13:41:22.054Z,75.206
2017-06-09T13:44:17.711Z,75.389
2017-06-09T13:47:15.143Z,73.878
2017-06-09T13:50:09.000Z,77.979
2017-06-09T13:53:04.685Z,74.477
2017-06-09T13:56:00.384Z,79.395
2017-06-09T13:58:56.030Z,79.430
2017-06-09T14:01:51.831Z,74.853
2017-06-09T14:04:47.600Z,79.433
2017-06-09T14:07:43.305Z,78.158
2017-06-09T14:10:38.969Z,78.140
2017-06-09T14:13:34.755Z,77.369
2017-06-09T14:16:30.500Z,79.774
2017-06-09T14:19:26.089Z,76.001
2017-06-09T14:22:21.829Z,76.178
2017-06-09T14:25:17.614Z,77.858
2017-06-09T14:28:15.017Z,75.741
2017-06-09T14:31:09.063Z,78.025
2017-06-09T14:34:06.400Z,72.177
2017-06-09T14:37:00.405Z,71.873
2017-06-09T14:39:56.021Z,75.191
2017-06-09T14:42:51.666Z,74.778
2017-06-09T14:45:47.401Z,73.884
2017-06-09T14:48:43.078Z,72.991
2017-06-09T14:51:38.717Z,71.106
2017-06-09T14:54:34.520Z,74.475
2017-06-09T14:57:30.303Z,69.103
2017-06-09T15:00:26.149Z,72.512
2017-06-09T15:03:23.585Z,69.516
2017-06-09T15:06:17.496Z,68.523
2017-06-09T15:09:13.237Z,73.422
2017-06-09T15:12:08.983Z,66.873
2017-06-09T15:15:04.751Z,68.758
2017-06-09T15:18:00.395Z,69.842
2017-06-09T15:20:57.871Z,68.849
2017-06-09T15:23:51.789Z,73.154
2017-06-09T15:26:47.546Z,70.944
2017-06-09T15:29:43.257Z,70.147
2017-06-09T15:32:38.971Z,73.282
2017-06-09T15:35:34.703Z,69.479
2017-06-09T15:38:30.460Z,68.692
2017-06-09T15:41:26.077Z,72.982
2017-06-09T15:44:21.785Z,69.170
2017-06-09T15:47:17.482Z,77.321
2017-06-09T15:50:13.265Z,72.394
2017-06-09T15:53:08.814Z,74.296
2017-06-09T15:56:04.563Z,72.013
2017-06-09T15:59:01.957Z,67.598
2017-06-09T16:01:55.977Z,69.242
2017-06-09T16:04:51.609Z,70.067
2017-06-09T16:07:47.297Z,77.004
2017-06-09T16:10:42.935Z,73.447
2017-06-09T16:13:38.625Z,75.333
2017-06-09T16:16:34.329Z,78.897
2017-06-09T16:19:29.966Z,74.225
2017-06-09T16:22:25.652Z,72.717
2017-06-09T16:25:21.414Z,73.568
2017-06-09T16:28:17.058Z,78.915
2017-06-09T16:31:12.713Z,75.440
2017-06-09T16:34:08.358Z,76.193
2017-06-09T16:37:03.992Z,75.922
2017-06-09T16:39:59.569Z,77.579
2017-06-09T16:42:55.233Z,81.310
2017-06-09T16:45:50.799Z,75.533
2017-06-09T16:48:48.186Z,76.235
2017-06-09T16:51:42.181Z,79.512
2017-06-09T16:54:38.000Z,77.483
2017-06-09T16:57:33.602Z,85.108
2017-06-09T17:00:29.221Z,84.529
2017-06-09T17:03:24.972Z,86.392
2017-06-09T17:06:22.429Z,85.381
2017-06-09T17:09:16.268Z,85.491
2017-06-09T17:12:11.950Z,95.095
2017-06-09T17:15:07.569Z,87.972
2017-06-09T17:18:03.260Z,86.814
2017-06-09T17:20:58.793Z,91.250
2017-06-09T17:23:54.346Z,92.591
2017-06-09T17:26:51.638Z,100.000
2017-06-09T17:29:45.318Z,99.570
2017-06-09T17:32:40.828Z,100.000
2017-06-09T17:35:36.329Z,100.000
2017-06-09T17:38:31.838Z,100.000
2017-06-09T17:41:27.281Z,100.000
2017-06-09T17:44:24.372Z,100.000
2017-06-09T17:47:18.112Z,100.000
2017-06-09T17:50:13.501Z,100.000
2017-06-09T17:53:10.636Z,100.000
2017-06-09T17:56:04.328Z,100.000
2017-06-09T17:59:01.284Z,100.000
2017-06-09T18:01:54.890Z,100.000
2017-06-09T18:04:50.150Z,100.000
2017-06-09T18:07:45.495Z,100.000
2017-06-09T18:10:40.644Z,100.000
2017-06-09T18:13:35.865Z,100.000
2017-06-09T18:16:31.294Z,100.000
2017-06-09T18:19:26.574Z,100.000
2017-06-09T18:22:21.814Z,100.000
2017-06-09T18:25:17.101Z,100.000
2017-06-09T18:28:12.180Z,100.000
2017-06-09T18:32:26.484Z,100.000
